Terminal Aerodrome Forecast
Issued by NWS

Home | Current Version | Previous Version | Text Only | Print | Product List | Glossary On
Versions: 1 2 3 4 5 6 7 8 9 10 11 12 13 14 15 16 17 18 19 20 21 22 23 24 25 26 27 28 29 30 31 32 33 34 35 36 37 38 39 40 41 42 43 44 45 46 47 48 49 50
000
FTUS45 KBOU 031901 AAA
TAFAPA
TAF AMD
KAPA 031901Z 0319/0418 05008KT P6SM -SN OVC010
      TEMPO 0320/0323 2SM -SN OVC008
     FM032300 07010KT 2SM -SN BR BKN008 OVC014
      TEMPO 0400/0404 1SM -SN BR VV008
     FM040400 02013G20KT 3/4SM -SN BR BKN005 OVC008
      TEMPO 0404/0407 1/4SM +SN BLSN VV003
     FM040900 02008KT 2SM -SN BR SCT008 OVC015
     FM041600 VRB05KT P6SM SCT015 BKN025=

USA.gov is the U.S. government's official web portal to all federal, state and local government web resources and services.